sensor_id;sensor_type;location;lat;lon;timestamp;pressure;altitude;pressure_sealevel;temperature;humidity
74544;BME280;63016;55.030;38.710;2023-04-12T00:01:57;100187.63;;;5.41;42.99
74544;BME280;63016;55.030;38.710;2023-04-12T00:04:23;100184.31;;;5.39;43.04
74544;BME280;63016;55.030;38.710;2023-04-12T00:06:51;100181.06;;;5.37;43.11
74544;BME280;63016;55.030;38.710;2023-04-12T00:09:19;100183.88;;;5.34;42.93
74544;BME280;63016;55.030;38.710;2023-04-12T00:11:45;100182.47;;;5.30;42.90
74544;BME280;63016;55.030;38.710;2023-04-12T00:14:10;100178.25;;;5.29;43.43
74544;BME280;63016;55.030;38.710;2023-04-12T00:16:36;100180.97;;;5.28;42.99
74544;BME280;63016;55.030;38.710;2023-04-12T00:19:03;100182.16;;;5.24;43.31
74544;BME280;63016;55.030;38.710;2023-04-12T00:21:31;100174.63;;;5.21;43.25
74544;BME280;63016;55.030;38.710;2023-04-12T00:23:56;100179.00;;;5.20;42.92
74544;BME280;63016;55.030;38.710;2023-04-12T00:26:22;100174.06;;;5.17;43.18
74544;BME280;63016;55.030;38.710;2023-04-12T00:28:49;100170.78;;;5.15;43.14
74544;BME280;63016;55.030;38.710;2023-04-12T00:31:15;100168.44;;;5.12;43.03
74544;BME280;63016;55.030;38.710;2023-04-12T00:33:40;100168.94;;;5.06;42.94
74544;BME280;63016;55.030;38.710;2023-04-12T00:36:06;100175.75;;;5.07;43.35
74544;BME280;63016;55.030;38.710;2023-04-12T00:38:32;100167.44;;;5.03;42.96
74544;BME280;63016;55.030;38.710;2023-04-12T00:40:57;100170.13;;;5.02;43.15
74544;BME280;63016;55.030;38.710;2023-04-12T00:43:23;100170.94;;;5.02;43.15
74544;BME280;63016;55.030;38.710;2023-04-12T00:45:53;100172.72;;;5.02;43.44
74544;BME280;63016;55.030;38.710;2023-04-12T00:48:19;100173.91;;;4.98;43.06
74544;BME280;63016;55.030;38.710;2023-04-12T00:50:44;100169.00;;;4.95;43.50
74544;BME280;63016;55.030;38.710;2023-04-12T00:53:13;100173.44;;;4.93;43.46
74544;BME280;63016;55.030;38.710;2023-04-12T00:55:43;100177.94;;;4.90;43.93
74544;BME280;63016;55.030;38.710;2023-04-12T00:58:09;100167.13;;;4.85;43.38
74544;BME280;63016;55.030;38.710;2023-04-12T01:00:34;100170.66;;;4.84;43.15
74544;BME280;63016;55.030;38.710;2023-04-12T01:03:00;100175.94;;;4.83;43.38
74544;BME280;63016;55.030;38.710;2023-04-12T01:05:28;100175.38;;;4.79;43.21
74544;BME280;63016;55.030;38.710;2023-04-12T01:08:18;100160.91;;;4.77;43.14
74544;BME280;63016;55.030;38.710;2023-04-12T01:13:37;100175.97;;;4.72;43.50
74544;BME280;63016;55.030;38.710;2023-04-12T01:16:17;100172.81;;;4.68;44.21
74544;BME280;63016;55.030;38.710;2023-04-12T01:18:46;100180.00;;;4.64;43.65
74544;BME280;63016;55.030;38.710;2023-04-12T01:21:28;100161.56;;;4.58;43.29
74544;BME280;63016;55.030;38.710;2023-04-12T01:24:25;100166.63;;;4.59;43.82
74544;BME280;63016;55.030;38.710;2023-04-12T01:26:55;100160.72;;;4.57;43.61
74544;BME280;63016;55.030;38.710;2023-04-12T01:29:26;100161.09;;;4.53;43.45
74544;BME280;63016;55.030;38.710;2023-04-12T01:31:57;100157.81;;;4.51;43.99
74544;BME280;63016;55.030;38.710;2023-04-12T01:34:25;100153.59;;;4.50;43.60
74544;BME280;63016;55.030;38.710;2023-04-12T01:36:53;100155.47;;;4.48;43.80
74544;BME280;63016;55.030;38.710;2023-04-12T01:39:20;100150.53;;;4.45;43.72
74544;BME280;63016;55.030;38.710;2023-04-12T01:41:45;100147.25;;;4.43;43.44
74544;BME280;63016;55.030;38.710;2023-04-12T01:44:15;100149.97;;;4.41;43.95
74544;BME280;63016;55.030;38.710;2023-04-12T01:46:45;100142.56;;;4.36;44.02
74544;BME280;63016;55.030;38.710;2023-04-12T01:49:11;100148.44;;;4.38;43.63
74544;BME280;63016;55.030;38.710;2023-04-12T01:52:02;100145.16;;;4.36;43.58
74544;BME280;63016;55.030;38.710;2023-04-12T01:54:36;100142.81;;;4.33;43.59
74544;BME280;63016;55.030;38.710;2023-04-12T01:57:03;100144.69;;;4.31;44.15
74544;BME280;63016;55.030;38.710;2023-04-12T01:59:38;100143.06;;;4.30;43.99
74544;BME280;63016;55.030;38.710;2023-04-12T02:02:05;100139.06;;;4.26;44.06
74544;BME280;63016;55.030;38.710;2023-04-12T02:04:32;100137.41;;;4.25;43.93
74544;BME280;63016;55.030;38.710;2023-04-12T02:06:59;100136.72;;;4.23;44.06
74544;BME280;63016;55.030;38.710;2023-04-12T02:09:24;100138.00;;;4.18;44.10
74544;BME280;63016;55.030;38.710;2023-04-12T02:11:50;100130.38;;;4.16;43.78
74544;BME280;63016;55.030;38.710;2023-04-12T02:14:16;100128.72;;;4.15;43.46
74544;BME280;63016;55.030;38.710;2023-04-12T02:16:41;100141.63;;;4.15;43.79
74544;BME280;63016;55.030;38.710;2023-04-12T02:19:09;100131.44;;;4.13;43.96
74544;BME280;63016;55.030;38.710;2023-04-12T02:21:39;100137.66;;;4.11;44.09
74544;BME280;63016;55.030;38.710;2023-04-12T02:24:05;100137.78;;;4.09;44.21
74544;BME280;63016;55.030;38.710;2023-04-12T02:26:30;100144.81;;;4.07;44.01
74544;BME280;63016;55.030;38.710;2023-04-12T02:28:56;100138.94;;;4.05;43.77
74544;BME280;63016;55.030;38.710;2023-04-12T02:31:22;100146.81;;;4.04;43.85
74544;BME280;63016;55.030;38.710;2023-04-12T02:33:48;100140.22;;;4.00;43.61
74544;BME280;63016;55.030;38.710;2023-04-12T02:36:14;100134.47;;;3.96;44.18
74544;BME280;63016;55.030;38.710;2023-04-12T02:38:40;100141.88;;;4.01;44.29
74544;BME280;63016;55.030;38.710;2023-04-12T02:41:05;100142.00;;;3.99;43.99
74544;BME280;63016;55.030;38.710;2023-04-12T02:43:31;100141.19;;;3.99;44.05
74544;BME280;63016;55.030;38.710;2023-04-12T02:45:57;100150.69;;;3.98;43.85
74544;BME280;63016;55.030;38.710;2023-04-12T02:48:22;100143.28;;;3.94;44.41
74544;BME280;63016;55.030;38.710;2023-04-12T02:50:48;100142.34;;;3.95;43.93
74544;BME280;63016;55.030;38.710;2023-04-12T02:53:15;100146.00;;;3.92;44.54
74544;BME280;63016;55.030;38.710;2023-04-12T02:55:40;100143.41;;;3.92;44.41
74544;BME280;63016;55.030;38.710;2023-04-12T02:58:06;100150.34;;;3.92;44.58
74544;BME280;63016;55.030;38.710;2023-04-12T03:00:34;100153.03;;;3.90;43.95
74544;BME280;63016;55.030;38.710;2023-04-12T03:03:01;100147.03;;;3.90;44.48
74544;BME280;63016;55.030;38.710;2023-04-12T03:05:28;100158.91;;;3.92;44.59
74544;BME280;63016;55.030;38.710;2023-04-12T03:07:53;100158.91;;;3.92;44.86
74544;BME280;63016;55.030;38.710;2023-04-12T03:10:21;100157.00;;;3.94;44.71
74544;BME280;63016;55.030;38.710;2023-04-12T03:12:47;100156.88;;;3.96;44.55
74544;BME280;63016;55.030;38.710;2023-04-12T03:15:12;100149.16;;;3.96;44.61
74544;BME280;63016;55.030;38.710;2023-04-12T03:17:38;100160.66;;;4.03;45.33
74544;BME280;63016;55.030;38.710;2023-04-12T03:20:05;100150.09;;;4.06;44.89
74544;BME280;63016;55.030;38.710;2023-04-12T03:22:33;100146.34;;;4.10;45.22
74544;BME280;63016;55.030;38.710;2023-04-12T03:24:59;100153.63;;;4.16;45.02
74544;BME280;63016;55.030;38.710;2023-04-12T03:27:25;100153.16;;;4.22;45.14
74544;BME280;63016;55.030;38.710;2023-04-12T03:29:51;100155.25;;;4.28;45.50
74544;BME280;63016;55.030;38.710;2023-04-12T03:32:16;100142.94;;;4.32;45.49
74544;BME280;63016;55.030;38.710;2023-04-12T03:34:42;100148.06;;;4.43;45.37
74544;BME280;63016;55.030;38.710;2023-04-12T03:37:09;100147.59;;;4.49;45.62
74544;BME280;63016;55.030;38.710;2023-04-12T03:39:35;100154.50;;;4.60;45.65
74544;BME280;63016;55.030;38.710;2023-04-12T03:42:00;100160.59;;;4.70;45.68
74544;BME280;63016;55.030;38.710;2023-04-12T03:44:26;100156.34;;;4.80;46.24
74544;BME280;63016;55.030;38.710;2023-04-12T03:46:51;100150.19;;;4.93;45.83
74544;BME280;63016;55.030;38.710;2023-04-12T03:49:18;100162.94;;;5.05;46.43
74544;BME280;63016;55.030;38.710;2023-04-12T03:51:43;100157.72;;;5.16;46.68
74544;BME280;63016;55.030;38.710;2023-04-12T03:54:10;100160.84;;;5.31;46.62
74544;BME280;63016;55.030;38.710;2023-04-12T03:56:39;100157.25;;;5.44;46.38
74544;BME280;63016;55.030;38.710;2023-04-12T03:59:06;100166.19;;;5.60;47.08
74544;BME280;63016;55.030;38.710;2023-04-12T04:01:35;100162.38;;;5.76;46.72
74544;BME280;63016;55.030;38.710;2023-04-12T04:04:01;100161.06;;;5.91;47.05
74544;BME280;63016;55.030;38.710;2023-04-12T04:06:27;100162.41;;;6.06;46.90
74544;BME280;63016;55.030;38.710;2023-04-12T04:08:56;100172.41;;;6.21;46.95
74544;BME280;63016;55.030;38.710;2023-04-12T04:11:23;100166.47;;;6.39;47.10
74544;BME280;63016;55.030;38.710;2023-04-12T04:13:49;100161.59;;;6.56;47.64
74544;BME280;63016;55.030;38.710;2023-04-12T04:16:14;100165.34;;;6.73;47.47
74544;BME280;63016;55.030;38.710;2023-04-12T04:18:40;100164.53;;;6.91;47.06
74544;BME280;63016;55.030;38.710;2023-04-12T04:21:06;100166.44;;;7.09;47.47
74544;BME280;63016;55.030;38.710;2023-04-12T04:23:32;100168.38;;;7.26;47.54
74544;BME280;63016;55.030;38.710;2023-04-12T04:26:06;100162.47;;;7.43;47.86
74544;BME280;63016;55.030;38.710;2023-04-12T04:28:40;100160.25;;;7.58;48.17
74544;BME280;63016;55.030;38.710;2023-04-12T04:31:15;100164.47;;;7.79;47.81
74544;BME280;63016;55.030;38.710;2023-04-12T04:33:41;100166.16;;;7.97;47.34
74544;BME280;63016;55.030;38.710;2023-04-12T04:36:08;100169.66;;;8.16;47.63
74544;BME280;63016;55.030;38.710;2023-04-12T04:38:34;100169.56;;;8.35;47.89
74544;BME280;63016;55.030;38.710;2023-04-12T04:41:00;100163.66;;;8.53;48.03
74544;BME280;63016;55.030;38.710;2023-04-12T04:43:29;100172.16;;;8.72;47.75
74544;BME280;63016;55.030;38.710;2023-04-12T04:45:59;100171.88;;;8.93;48.20
74544;BME280;63016;55.030;38.710;2023-04-12T04:48:25;100173.50;;;9.12;48.82
74544;BME280;63016;55.030;38.710;2023-04-12T04:50:51;100167.31;;;9.31;47.96
74544;BME280;63016;55.030;38.710;2023-04-12T04:53:18;100173.03;;;9.52;48.47
74544;BME280;63016;55.030;38.710;2023-04-12T04:55:45;100167.31;;;9.75;48.38
74544;BME280;63016;55.030;38.710;2023-04-12T04:58:12;100166.13;;;9.95;48.04
74544;BME280;63016;55.030;38.710;2023-04-12T05:00:38;100168.38;;;10.16;48.12
74544;BME280;63016;55.030;38.710;2023-04-12T05:03:03;100165.69;;;10.34;48.14
74544;BME280;63016;55.030;38.710;2023-04-12T05:05:29;100169.00;;;10.52;47.74
74544;BME280;63016;55.030;38.710;2023-04-12T05:07:55;100167.75;;;10.73;48.10
74544;BME280;63016;55.030;38.710;2023-04-12T05:10:22;100176.78;;;10.95;47.89
74544;BME280;63016;55.030;38.710;2023-04-12T05:12:47;100186.13;;;11.14;47.90
74544;BME280;63016;55.030;38.710;2023-04-12T05:15:13;100169.97;;;11.35;47.84
74544;BME280;63016;55.030;38.710;2023-04-12T05:17:39;100168.97;;;11.52;48.05
74544;BME280;63016;55.030;38.710;2023-04-12T05:20:05;100167.31;;;11.75;48.13
74544;BME280;63016;55.030;38.710;2023-04-12T05:22:35;100167.44;;;11.98;48.01
74544;BME280;63016;55.030;38.710;2023-04-12T05:25:00;100169.00;;;12.24;47.70
74544;BME280;63016;55.030;38.710;2023-04-12T05:27:28;100173.47;;;12.46;47.58
74544;BME280;63016;55.030;38.710;2023-04-12T05:29:55;100170.09;;;12.69;47.24
74544;BME280;63016;55.030;38.710;2023-04-12T05:32:21;100173.56;;;12.92;47.18
74544;BME280;63016;55.030;38.710;2023-04-12T05:34:46;100173.56;;;12.92;47.18
74544;BME280;63016;55.030;38.710;2023-04-12T05:37:12;100178.66;;;13.40;47.27
74544;BME280;63016;55.030;38.710;2023-04-12T05:39:37;100170.72;;;13.62;47.13
74544;BME280;63016;55.030;38.710;2023-04-12T05:42:03;100164.44;;;13.86;46.63
74544;BME280;63016;55.030;38.710;2023-04-12T05:44:29;100163.53;;;14.09;46.80
74544;BME280;63016;55.030;38.710;2023-04-12T05:46:54;100166.88;;;14.32;46.51
74544;BME280;63016;55.030;38.710;2023-04-12T05:49:20;100166.13;;;14.53;46.47
74544;BME280;63016;55.030;38.710;2023-04-12T05:51:45;100160.09;;;14.74;46.41
74544;BME280;63016;55.030;38.710;2023-04-12T05:54:11;100158.94;;;14.98;46.06
74544;BME280;63016;55.030;38.710;2023-04-12T05:56:37;100169.44;;;15.20;46.17
74544;BME280;63016;55.030;38.710;2023-04-12T05:59:03;100154.84;;;15.38;45.67
74544;BME280;63016;55.030;38.710;2023-04-12T06:01:29;100159.44;;;15.58;45.76
74544;BME280;63016;55.030;38.710;2023-04-12T06:03:59;100161.03;;;15.80;45.65
74544;BME280;63016;55.030;38.710;2023-04-12T06:06:26;100162.78;;;16.01;45.39
74544;BME280;63016;55.030;38.710;2023-04-12T06:08:55;100156.19;;;16.18;45.40
74544;BME280;63016;55.030;38.710;2023-04-12T06:11:24;100164.97;;;16.39;45.43
74544;BME280;63016;55.030;38.710;2023-04-12T06:13:50;100161.00;;;16.56;45.07
74544;BME280;63016;55.030;38.710;2023-04-12T06:16:15;100168.38;;;16.74;45.32
74544;BME280;63016;55.030;38.710;2023-04-12T06:18:41;100166.00;;;16.92;44.83
74544;BME280;63016;55.030;38.710;2023-04-12T06:21:06;100166.03;;;17.12;44.82
74544;BME280;63016;55.030;38.710;2023-04-12T06:23:32;100167.66;;;17.27;44.62
74544;BME280;63016;55.030;38.710;2023-04-12T06:25:59;100162.78;;;17.43;44.27
74544;BME280;63016;55.030;38.710;2023-04-12T06:28:25;100162.34;;;17.60;44.22
74544;BME280;63016;55.030;38.710;2023-04-12T06:30:50;100163.56;;;17.77;43.55
74544;BME280;63016;55.030;38.710;2023-04-12T06:33:16;100161.72;;;17.91;44.18
74544;BME280;63016;55.030;38.710;2023-04-12T06:35:41;100151.72;;;18.06;43.44
74544;BME280;63016;55.030;38.710;2023-04-12T06:38:07;100151.69;;;18.19;43.91
74544;BME280;63016;55.030;38.710;2023-04-12T06:40:32;100158.13;;;18.37;43.90
74544;BME280;63016;55.030;38.710;2023-04-12T06:42:58;100160.47;;;18.52;43.68
74544;BME280;63016;55.030;38.710;2023-04-12T06:45:23;100152.31;;;18.66;43.36
74544;BME280;63016;55.030;38.710;2023-04-12T06:47:49;100157.97;;;18.77;43.54
74544;BME280;63016;55.030;38.710;2023-04-12T06:50:15;100152.56;;;18.90;42.93
74544;BME280;63016;55.030;38.710;2023-04-12T06:52:40;100162.25;;;19.03;43.18
74544;BME280;63016;55.030;38.710;2023-04-12T06:55:06;100157.31;;;19.13;43.03
74544;BME280;63016;55.030;38.710;2023-04-12T06:57:32;100158.00;;;19.26;42.92
74544;BME280;63016;55.030;38.710;2023-04-12T06:59:57;100160.97;;;19.37;42.71
74544;BME280;63016;55.030;38.710;2023-04-12T07:02:23;100149.09;;;19.46;42.47
74544;BME280;63016;55.030;38.710;2023-04-12T07:04:52;100147.56;;;19.57;42.20
74544;BME280;63016;55.030;38.710;2023-04-12T07:07:20;100146.53;;;19.64;41.94
74544;BME280;63016;55.030;38.710;2023-04-12T07:09:46;100154.13;;;19.79;42.03
74544;BME280;63016;55.030;38.710;2023-04-12T07:12:16;100153.16;;;19.92;41.85
74544;BME280;63016;55.030;38.710;2023-04-12T07:14:42;100151.63;;;20.02;41.18
74544;BME280;63016;55.030;38.710;2023-04-12T07:17:10;100149.47;;;20.11;40.97
74544;BME280;63016;55.030;38.710;2023-04-12T07:19:35;100144.69;;;20.20;41.62
74544;BME280;63016;55.030;38.710;2023-04-12T07:22:01;100145.44;;;20.27;41.55
74544;BME280;63016;55.030;38.710;2023-04-12T07:24:26;100143.28;;;20.36;41.66
74544;BME280;63016;55.030;38.710;2023-04-12T07:26:52;100142.56;;;20.47;41.60
74544;BME280;63016;55.030;38.710;2023-04-12T07:29:21;100131.78;;;20.60;41.35
74544;BME280;63016;55.030;38.710;2023-04-12T07:31:47;100147.00;;;20.65;40.93
74544;BME280;63016;55.030;38.710;2023-04-12T07:34:12;100135.69;;;20.69;40.58
74544;BME280;63016;55.030;38.710;2023-04-12T07:36:38;100141.16;;;20.74;40.40
74544;BME280;63016;55.030;38.710;2023-04-12T07:39:03;100133.34;;;20.79;40.58
74544;BME280;63016;55.030;38.710;2023-04-12T07:41:30;100131.03;;;20.83;39.82
74544;BME280;63016;55.030;38.710;2023-04-12T07:43:55;100132.19;;;20.87;39.84
74544;BME280;63016;55.030;38.710;2023-04-12T07:46:21;100137.28;;;20.89;39.91
74544;BME280;63016;55.030;38.710;2023-04-12T07:48:46;100132.31;;;20.92;39.84
74544;BME280;63016;55.030;38.710;2023-04-12T07:51:12;100133.72;;;20.95;39.36
74544;BME280;63016;55.030;38.710;2023-04-12T07:53:38;100134.53;;;20.95;39.20
74544;BME280;63016;55.030;38.710;2023-04-12T07:56:06;100137.75;;;20.97;39.34
74544;BME280;63016;55.030;38.710;2023-04-12T07:58:32;100138.09;;;21.01;39.30
74544;BME280;63016;55.030;38.710;2023-04-12T08:00:58;100128.06;;;21.03;39.59
74544;BME280;63016;55.030;38.710;2023-04-12T08:03:24;100123.47;;;21.10;39.88
74544;BME280;63016;55.030;38.710;2023-04-12T08:05:50;100131.91;;;21.19;39.78
74544;BME280;63016;55.030;38.710;2023-04-12T08:08:18;100129.13;;;21.25;39.21
74544;BME280;63016;55.030;38.710;2023-04-12T08:10:46;100132.03;;;21.24;38.37
74544;BME280;63016;55.030;38.710;2023-04-12T08:13:12;100118.28;;;21.15;38.68
74544;BME280;63016;55.030;38.710;2023-04-12T08:15:37;100119.91;;;21.16;38.75
74544;BME280;63016;55.030;38.710;2023-04-12T08:18:03;100121.88;;;21.21;39.13
74544;BME280;63016;55.030;38.710;2023-04-12T08:20:29;100121.19;;;21.25;38.68
74544;BME280;63016;55.030;38.710;2023-04-12T08:22:54;100113.38;;;21.30;38.69
74544;BME280;63016;55.030;38.710;2023-04-12T08:25:20;100112.66;;;21.35;38.54
74544;BME280;63016;55.030;38.710;2023-04-12T08:27:48;100124.69;;;21.38;38.52
74544;BME280;63016;55.030;38.710;2023-04-12T08:30:13;100123.66;;;21.39;38.60
74544;BME280;63016;55.030;38.710;2023-04-12T08:32:39;100125.59;;;21.43;38.75
74544;BME280;63016;55.030;38.710;2023-04-12T08:35:06;100120.97;;;21.50;38.51
74544;BME280;63016;55.030;38.710;2023-04-12T08:37:32;100111.50;;;21.54;38.75
74544;BME280;63016;55.030;38.710;2023-04-12T08:40:03;100103.53;;;21.54;38.78
74544;BME280;63016;55.030;38.710;2023-04-12T08:42:31;100109.22;;;21.58;38.05
74544;BME280;63016;55.030;38.710;2023-04-12T08:44:58;100104.69;;;21.59;38.32
74544;BME280;63016;55.030;38.710;2023-04-12T08:47:23;100099.16;;;21.60;37.68
74544;BME280;63016;55.030;38.710;2023-04-12T08:49:50;100109.44;;;21.57;38.04
74544;BME280;63016;55.030;38.710;2023-04-12T08:52:15;100106.78;;;21.57;37.97
74544;BME280;63016;55.030;38.710;2023-04-12T08:54:41;100100.53;;;21.51;37.55
74544;BME280;63016;55.030;38.710;2023-04-12T08:57:08;100096.53;;;21.48;37.90
74544;BME280;63016;55.030;38.710;2023-04-12T08:59:37;100101.81;;;21.48;37.61
74544;BME280;63016;55.030;38.710;2023-04-12T09:02:03;100095.72;;;21.48;37.58
74544;BME280;63016;55.030;38.710;2023-04-12T09:04:29;100092.47;;;21.46;37.27
74544;BME280;63016;55.030;38.710;2023-04-12T09:06:55;100094.31;;;21.45;37.43
74544;BME280;63016;55.030;38.710;2023-04-12T09:09:48;100088.19;;;21.45;38.84
74544;BME280;63016;55.030;38.710;2023-04-12T09:12:15;100084.38;;;21.41;36.76
74544;BME280;63016;55.030;38.710;2023-04-12T09:14:41;100078.41;;;21.34;36.94
74544;BME280;63016;55.030;38.710;2023-04-12T09:17:22;100073.41;;;21.25;37.64
74544;BME280;63016;55.030;38.710;2023-04-12T09:19:48;100076.75;;;21.21;37.20
74544;BME280;63016;55.030;38.710;2023-04-12T09:22:14;100056.81;;;21.18;36.99
74544;BME280;63016;55.030;38.710;2023-04-12T09:24:50;100060.94;;;21.26;37.14
74544;BME280;63016;55.030;38.710;2023-04-12T09:27:18;100053.56;;;21.28;37.30
74544;BME280;63016;55.030;38.710;2023-04-12T09:29:47;100055.78;;;21.31;37.10
74544;BME280;63016;55.030;38.710;2023-04-12T09:32:25;100052.31;;;21.30;37.31
74544;BME280;63016;55.030;38.710;2023-04-12T09:34:56;100054.84;;;21.25;36.73
74544;BME280;63016;55.030;38.710;2023-04-12T09:37:22;100042.25;;;21.21;36.77
74544;BME280;63016;55.030;38.710;2023-04-12T09:40:06;100047.56;;;21.21;37.05
74544;BME280;63016;55.030;38.710;2023-04-12T09:42:33;100049.41;;;21.20;36.43
74544;BME280;63016;55.030;38.710;2023-04-12T09:45:00;100042.25;;;21.21;36.75
74544;BME280;63016;55.030;38.710;2023-04-12T09:47:39;100046.31;;;21.23;37.33
74544;BME280;63016;55.030;38.710;2023-04-12T09:50:06;100043.41;;;21.25;36.78
74544;BME280;63016;55.030;38.710;2023-04-12T09:52:36;100042.38;;;21.26;37.16
74544;BME280;63016;55.030;38.710;2023-04-12T09:55:07;100038.47;;;21.28;36.86
74544;BME280;63016;55.030;38.710;2023-04-12T09:57:41;100035.22;;;21.26;37.00
74544;BME280;63016;55.030;38.710;2023-04-12T10:00:09;100038.00;;;21.32;37.01
74544;BME280;63016;55.030;38.710;2023-04-12T10:02:43;100040.66;;;21.32;36.13
74544;BME280;63016;55.030;38.710;2023-04-12T10:05:10;100043.66;;;21.23;36.11
74544;BME280;63016;55.030;38.710;2023-04-12T10:07:39;100032.13;;;21.18;36.15
74544;BME280;63016;55.030;38.710;2023-04-12T10:10:13;100028.75;;;21.11;36.32
74544;BME280;63016;55.030;38.710;2023-04-12T10:12:39;100020.69;;;21.05;35.91
74544;BME280;63016;55.030;38.710;2023-04-12T10:15:08;100019.53;;;21.01;35.85
74544;BME280;63016;55.030;38.710;2023-04-12T10:17:51;100021.50;;;21.06;36.68
74544;BME280;63016;55.030;38.710;2023-04-12T10:20:19;100007.78;;;21.09;36.31
74544;BME280;63016;55.030;38.710;2023-04-12T10:22:51;99993.81;;;21.14;36.32
74544;BME280;63016;55.030;38.710;2023-04-12T10:25:22;99997.28;;;21.14;35.72
74544;BME280;63016;55.030;38.710;2023-04-12T10:27:48;99997.38;;;21.08;35.85
74544;BME280;63016;55.030;38.710;2023-04-12T10:30:30;100001.44;;;21.10;37.23
74544;BME280;63016;55.030;38.710;2023-04-12T10:35:28;99994.50;;;21.09;35.69
74544;BME280;63016;55.030;38.710;2023-04-12T10:38:03;99992.31;;;21.06;36.15
74544;BME280;63016;55.030;38.710;2023-04-12T10:40:31;99989.31;;;21.02;35.28
74544;BME280;63016;55.030;38.710;2023-04-12T10:45:47;99984.25;;;20.89;35.59
74544;BME280;63016;55.030;38.710;2023-04-12T10:48:36;99984.47;;;20.88;36.68
74544;BME280;63016;55.030;38.710;2023-04-12T10:51:11;99983.91;;;20.86;35.53
74544;BME280;63016;55.030;38.710;2023-04-12T10:53:38;99976.19;;;20.84;35.44
74544;BME280;63016;55.030;38.710;2023-04-12T10:59:02;99975.25;;;20.90;35.75
74544;BME280;63016;55.030;38.710;2023-04-12T11:01:28;99973.97;;;20.93;35.37
74544;BME280;63016;55.030;38.710;2023-04-12T11:07:08;99961.97;;;21.02;37.90
74544;BME280;63016;55.030;38.710;2023-04-12T11:09:38;99974.78;;;21.05;35.68
74544;BME280;63016;55.030;38.710;2023-04-12T11:14:44;99954.81;;;21.14;35.44
74544;BME280;63016;55.030;38.710;2023-04-12T11:22:06;99952.41;;;21.01;35.17
74544;BME280;63016;55.030;38.710;2023-04-12T11:24:32;99950.81;;;21.00;35.15
74544;BME280;63016;55.030;38.710;2023-04-12T11:27:01;99955.06;;;21.01;35.39
74544;BME280;63016;55.030;38.710;2023-04-12T11:29:27;99943.88;;;20.99;34.85
74544;BME280;63016;55.030;38.710;2023-04-12T11:31:52;99947.09;;;21.01;34.75
74544;BME280;63016;55.030;38.710;2023-04-12T11:34:20;99938.34;;;21.00;35.14
74544;BME280;63016;55.030;38.710;2023-04-12T11:36:48;99935.81;;;21.05;34.81
74544;BME280;63016;55.030;38.710;2023-04-12T11:39:16;99935.00;;;21.05;35.18
74544;BME280;63016;55.030;38.710;2023-04-12T11:41:44;99927.16;;;21.10;35.23
74544;BME280;63016;55.030;38.710;2023-04-12T11:44:10;99919.28;;;21.15;35.52
74544;BME280;63016;55.030;38.710;2023-04-12T11:46:35;99910.97;;;21.23;35.37
74544;BME280;63016;55.030;38.710;2023-04-12T11:49:01;99916.03;;;21.25;34.42
74544;BME280;63016;55.030;38.710;2023-04-12T11:51:26;99910.06;;;21.18;34.72
74544;BME280;63016;55.030;38.710;2023-04-12T11:53:54;99917.69;;;21.14;34.76
74544;BME280;63016;55.030;38.710;2023-04-12T11:56:21;99913.19;;;21.15;34.71
74544;BME280;63016;55.030;38.710;2023-04-12T11:58:47;99907.53;;;21.11;34.61
74544;BME280;63016;55.030;38.710;2023-04-12T12:01:17;99904.88;;;21.11;34.77
74544;BME280;63016;55.030;38.710;2023-04-12T12:03:43;99910.19;;;21.11;34.49
74544;BME280;63016;55.030;38.710;2023-04-12T12:06:10;99910.19;;;21.11;34.30
74544;BME280;63016;55.030;38.710;2023-04-12T12:08:36;99900.38;;;21.12;34.66
74544;BME280;63016;55.030;38.710;2023-04-12T12:11:01;99901.75;;;21.14;34.75
74544;BME280;63016;55.030;38.710;2023-04-12T12:13:43;99898.06;;;21.15;35.28
74544;BME280;63016;55.030;38.710;2023-04-12T12:16:09;99890.56;;;21.12;34.73
74544;BME280;63016;55.030;38.710;2023-04-12T12:18:41;99889.53;;;21.13;34.92
74544;BME280;63016;55.030;38.710;2023-04-12T12:21:08;99887.19;;;21.17;34.69
74544;BME280;63016;55.030;38.710;2023-04-12T12:23:34;99891.25;;;21.19;33.97
74544;BME280;63016;55.030;38.710;2023-04-12T12:26:01;99884.00;;;21.15;33.95
74544;BME280;63016;55.030;38.710;2023-04-12T12:28:36;99882.75;;;21.05;33.89
74544;BME280;63016;55.030;38.710;2023-04-12T12:31:05;99873.88;;;21.00;34.29
74544;BME280;63016;55.030;38.710;2023-04-12T12:33:38;99873.53;;;20.96;34.21
74544;BME280;63016;55.030;38.710;2023-04-12T12:36:08;99869.63;;;20.99;34.35
74544;BME280;63016;55.030;38.710;2023-04-12T12:38:34;99867.88;;;21.04;34.00
74544;BME280;63016;55.030;38.710;2023-04-12T12:41:16;99867.06;;;21.04;34.62
74544;BME280;63016;55.030;38.710;2023-04-12T12:43:44;99868.09;;;21.03;34.28
74544;BME280;63016;55.030;38.710;2023-04-12T12:46:10;99857.16;;;20.99;33.70
74544;BME280;63016;55.030;38.710;2023-04-12T12:48:45;99857.72;;;21.01;33.87
74544;BME280;63016;55.030;38.710;2023-04-12T12:51:12;99860.63;;;21.00;33.78
74544;BME280;63016;55.030;38.710;2023-04-12T12:53:39;99855.31;;;21.00;33.73
74544;BME280;63016;55.030;38.710;2023-04-12T12:56:06;99849.09;;;20.94;33.67
74544;BME280;63016;55.030;38.710;2023-04-12T12:58:33;99855.78;;;20.97;34.13
74544;BME280;63016;55.030;38.710;2023-04-12T13:00:58;99851.06;;;20.99;34.09
74544;BME280;63016;55.030;38.710;2023-04-12T13:03:24;99847.91;;;21.02;34.25
74544;BME280;63016;55.030;38.710;2023-04-12T13:05:49;99847.56;;;21.10;34.22
74544;BME280;63016;55.030;38.710;2023-04-12T13:08:17;99847.31;;;21.12;33.83
74544;BME280;63016;55.030;38.710;2023-04-12T13:10:42;99836.13;;;21.10;34.08